Latest Weather Observations for Arlington Reef

IDQ60801

Issued at 5:22 pm EST Thursday 18 July 2019 (issued every 10 minutes, with the page automatically refreshed every 10 minutes)

About weather observations | Map of weather stations | Latest weather observations for QLD | Other Formats
Station Details ID: 200879 Name: ARLINGTON REEF Lat: -16.72 Lon: 146.11 Height: 0.0 m
Data from the previous 72 hours. | See also: Recent months at Arlington Reef
Date/Time
EST
Temp
°C
App
Temp
°C
Dew
Point
°C
Rel
Hum
%
Delta-T
°C
Wind Press
QNH
hPa
Press
MSL
hPa
Rain since
9am
mm
Dir  Spd
km/h
Gust
km/h
Spd
kts
Gust
kts
18/05:00pm - - - - - S 32 39 17 21 1016.1 1016.1 -
18/04:30pm - - - - - S 33 37 18 20 1016.0 1016.0 -
18/04:00pm - - - - - SSE 33 39 18 21 1015.9 1015.9 -
18/03:30pm - - - - - SSE 32 37 17 20 1015.9 1015.9 -
18/03:00pm - - - - - S 33 41 18 22 1015.8 1015.8 -
18/02:30pm - - - - - S 35 43 19 23 1015.8 1015.8 -
18/02:00pm - - - - - S 37 43 20 23 1016.0 1016.0 -
18/01:30pm - - - - - S 35 43 19 23 1016.3 1016.3 -
18/01:00pm - - - - - S 35 43 19 23 1016.8 1016.8 -
18/12:30pm - - - - - S 35 43 19 23 1017.3 1017.3 -
18/12:00pm - - - - - S 37 44 20 24 1017.8 1017.8 -
18/11:30am - - - - - S 35 46 19 25 1018.0 1018.0 -
18/11:00am - - - - - S 33 41 18 22 1018.3 1018.3 -
18/10:30am - - - - - SSE 33 39 18 21 1018.5 1018.5 -
18/10:00am - - - - - S 32 39 17 21 1018.4 1018.4 -
18/09:30am - - - - - S 33 39 18 21 1018.4 1018.4 -
18/09:00am - - - - - S 33 39 18 21 1018.1 1018.1 -
18/08:30am - - - - - S 33 39 18 21 1018.0 1018.0 -
18/08:00am - - - - - S 32 37 17 20 1017.6 1017.6 -
18/07:30am - - - - - S 32 39 17 21 1017.4 1017.4 -
18/07:00am - - - - - S 32 35 17 19 1016.9 1016.9 -
18/06:30am - - - - - S 32 37 17 20 1016.5 1016.5 -
18/06:00am - - - - - S 32 37 17 20 1016.3 1016.3 -
18/05:30am - - - - - S 33 39 18 21 1016.0 1016.0 -
18/05:00am - - - - - S 32 35 17 19 1015.9 1015.9 -
18/04:30am - - - - - S 30 35 16 19 1015.9 1015.9 -
18/04:00am - - - - - S 30 33 16 18 1015.7 1015.7 -
18/03:30am - - - - - S 30 33 16 18 1015.7 1015.7 -
18/03:00am - - - - - S 28 33 15 18 1015.8 1015.8 -
18/02:30am - - - - - S 28 33 15 18 1016.2 1016.2 -
18/02:00am - - - - - S 30 33 16 18 1016.3 1016.3 -
18/01:30am - - - - - S 33 39 18 21 1016.3 1016.3 -
18/01:00am - - - - - S 37 43 20 23 1016.5 1016.5 -
18/12:30am - - - - - S 35 44 19 24 1016.6 1016.6 -
18/12:00am - - - - - S 33 37 18 20 1016.8 1016.8 -
 
Date/Time
EST
Temp
°C
App
Temp
°C
Dew
Point
°C
Rel
Hum
%
Delta-T
°C
Wind Press
QNH
hPa
Press
MSL
hPa
Rain since
9am
mm
Dir  Spd
km/h
Gust
km/h
Spd
kts
Gust
kts
17/11:30pm - - - - - SSE 32 37 17 20 1017.2 1017.2 -
17/11:00pm - - - - - S 35 39 19 21 1017.1 1017.1 -
17/10:30pm - - - - - S 33 39 18 21 1017.4 1017.4 -
17/10:00pm - - - - - S 35 43 19 23 1017.5 1017.5 -
17/09:30pm - - - - - S 37 43 20 23 1017.3 1017.3 -
17/09:00pm - - - - - SSE 35 43 19 23 1017.3 1017.3 -
17/08:30pm - - - - - SSE 35 41 19 22 1017.0 1017.0 -
17/08:00pm - - - - - SSE 37 43 20 23 1017.0 1017.0 -
17/07:30pm - - - - - SSE 35 41 19 22 1017.0 1017.0 -
17/07:00pm - - - - - SSE 35 41 19 22 1016.6 1016.6 -
17/06:30pm - - - - - SSE 35 41 19 22 1016.6 1016.6 -
17/06:00pm - - - - - SSE 35 41 19 22 1016.2 1016.2 -
17/05:30pm - - - - - SSE 39 44 21 24 1016.0 1016.0 -
17/05:00pm - - - - - S 39 46 21 25 1015.7 1015.7 -
17/04:30pm - - - - - S 39 46 21 25 1015.5 1015.5 -
17/04:00pm - - - - - S 39 43 21 23 1015.2 1015.2 -
17/03:30pm - - - - - S 39 44 21 24 1015.5 1015.5 -
17/03:00pm - - - - - S 37 43 20 23 1015.6 1015.6 -
17/02:30pm - - - - - S 35 43 19 23 1015.7 1015.7 -
17/02:00pm - - - - - S 35 43 19 23 1015.9 1015.9 -
17/01:30pm - - - - - S 37 44 20 24 1016.3 1016.3 -
17/01:00pm - - - - - S 39 44 21 24 1016.6 1016.6 -
17/12:30pm - - - - - S 37 43 20 23 1016.9 1016.9 -
17/12:00pm - - - - - S 35 41 19 22 1017.6 1017.6 -
17/11:30am - - - - - S 35 41 19 22 1018.0 1018.0 -
17/11:00am - - - - - S 35 41 19 22 1018.3 1018.3 -
17/10:30am - - - - - S 35 41 19 22 1018.1 1018.1 -
17/10:00am - - - - - S 35 43 19 23 1018.3 1018.3 -
17/09:30am - - - - - S 35 43 19 23 1018.4 1018.4 -
17/09:00am - - - - - S 32 37 17 20 1018.3 1018.3 -
17/08:30am - - - - - S 32 39 17 21 1018.0 1018.0 -
17/08:00am - - - - - S 35 41 19 22 1017.6 1017.6 -
17/07:30am - - - - - S 33 39 18 21 1017.3 1017.3 -
17/07:00am - - - - - S 33 43 18 23 1017.2 1017.2 -
17/06:30am - - - - - S 35 39 19 21 1016.7 1016.7 -
17/06:00am - - - - - S 33 41 18 22 1016.4 1016.4 -
17/05:30am - - - - - S 35 44 19 24 1016.3 1016.3 -
17/05:00am - - - - - S 35 41 19 22 1016.1 1016.1 -
17/04:30am - - - - - S 35 43 19 23 1015.8 1015.8 -
17/04:00am - - - - - S 35 43 19 23 1015.7 1015.7 -
17/03:30am - - - - - S 35 41 19 22 1015.9 1015.9 -
17/03:00am - - - - - S 33 39 18 21 1016.0 1016.0 -
17/02:30am - - - - - S 33 39 18 21 1016.2 1016.2 -
17/02:00am - - - - - SSE 37 46 20 25 1016.3 1016.3 -
17/01:30am - - - - - SSE 39 46 21 25 1016.6 1016.6 -
17/01:00am - - - - - SSE 39 44 21 24 1017.0 1017.0 -
17/12:30am - - - - - SSE 32 39 17 21 1017.4 1017.4 -
17/12:00am - - - - - SSE 35 41 19 22 1017.6 1017.6 -
 
Date/Time
EST
Temp
°C
App
Temp
°C
Dew
Point
°C
Rel
Hum
%
Delta-T
°C
Wind Press
QNH
hPa
Press
MSL
hPa
Rain since
9am
mm
Dir  Spd
km/h
Gust
km/h
Spd
kts
Gust
kts
16/11:30pm - - - - - S 37 43 20 23 1017.7 1017.7 -
16/11:00pm - - - - - S 39 46 21 25 1017.9 1017.9 -
16/10:30pm - - - - - S 37 43 20 23 1018.3 1018.3 -
16/10:00pm - - - - - S 37 43 20 23 1018.6 1018.6 -
16/09:30pm - - - - - S 35 43 19 23 1018.9 1018.9 -
16/09:00pm - - - - - S 35 43 19 23 1018.8 1018.8 -
16/08:30pm - - - - - S 35 43 19 23 1018.6 1018.6 -
16/08:00pm - - - - - S 35 44 19 24 1018.5 1018.5 -
16/07:30pm - - - - - S 37 46 20 25 1018.1 1018.1 -
16/07:00pm - - - - - S 39 46 21 25 1017.7 1017.7 -
16/06:30pm - - - - - S 39 50 21 27 1017.5 1017.5 -
16/06:00pm - - - - - S 41 50 22 27 1017.0 1017.0 -
16/05:30pm - - - - - S 43 50 23 27 1016.6 1016.6 -
16/05:00pm - - - - - S 43 52 23 28 1016.3 1016.3 -
16/04:30pm - - - - - S 41 50 22 27 1016.2 1016.2 -
16/04:00pm - - - - - S 41 48 22 26 1016.1 1016.1 -
16/03:30pm - - - - - S 39 48 21 26 1016.1 1016.1 -
16/03:00pm - - - - - S 43 48 23 26 1015.9 1015.9 -
16/02:30pm - - - - - S 35 43 19 23 1016.4 1016.4 -
16/02:00pm - - - - - S 33 39 18 21 1016.6 1016.6 -
16/01:30pm - - - - - SSE 33 43 18 23 1016.9 1016.9 -
16/01:00pm - - - - - SSE 35 43 19 23 1017.3 1017.3 -
16/12:30pm - - - - - SSE 37 43 20 23 1017.6 1017.6 -
16/12:00pm - - - - - SSE 35 44 19 24 1017.8 1017.8 -
16/11:30am - - - - - SSE 37 48 20 26 1018.3 1018.3 -
16/11:00am - - - - - SSE 39 48 21 26 1018.5 1018.5 -
16/10:30am - - - - - SSE 37 46 20 25 1019.0 1019.0 -
16/10:00am - - - - - SSE 37 46 20 25 1019.0 1019.0 -
16/09:30am - - - - - SSE 35 44 19 24 1019.1 1019.1 -
16/09:00am - - - - - SSE 35 43 19 23 1019.0 1019.0 -
16/08:30am - - - - - SSE 39 46 21 25 1018.9 1018.9 -
16/08:00am - - - - - SSE 41 48 22 26 1018.5 1018.5 -
16/07:30am - - - - - S 41 48 22 26 1018.0 1018.0 -
16/07:00am - - - - - S 41 48 22 26 1017.5 1017.5 -
16/06:30am - - - - - S 39 46 21 25 1017.3 1017.3 -
16/06:00am - - - - - S 39 46 21 25 1016.9 1016.9 -
16/05:30am - - - - - S 37 46 20 25 1016.8 1016.8 -
16/05:24am - - - - - S 39 46 21 25 1016.7 1016.7 -
16/05:00am - - - - - SSE 39 44 21 24 1016.6 1016.6 -
16/04:30am - - - - - S 35 43 19 23 1016.5 1016.5 -
16/04:00am - - - - - S 37 43 20 23 1016.5 1016.5 -
16/03:30am - - - - - S 37 43 20 23 1016.4 1016.4 -
16/03:00am - - - - - S 37 44 20 24 1016.6 1016.6 -
16/02:30am - - - - - SSE 33 43 18 23 1016.8 1016.8 -
16/02:00am - - - - - SSE 37 46 20 25 1017.1 1017.1 -
16/01:30am - - - - - SSE 39 50 21 27 1017.2 1017.2 -
16/01:00am - - - - - SSE 39 46 21 25 1017.3 1017.3 -
16/12:30am - - - - - SSE 39 46 21 25 1017.6 1017.6 -
16/12:00am - - - - - SE 37 44 20 24 1017.8 1017.8 -
 
Date/Time
EST
Temp
°C
App
Temp
°C
Dew
Point
°C
Rel
Hum
%
Delta-T
°C
Wind Press
QNH
hPa
Press
MSL
hPa
Rain since
9am
mm
Dir  Spd
km/h
Gust
km/h
Spd
kts
Gust
kts
15/11:30pm - - - - - SSE 39 44 21 24 1018.0 1018.0 -
15/11:00pm - - - - - SSE 41 50 22 27 1018.1 1018.1 -
15/10:30pm - - - - - SSE 39 46 21 25 1018.3 1018.3 -
15/10:00pm - - - - - SSE 41 48 22 26 1018.5 1018.5 -
15/09:30pm - - - - - SSE 43 50 23 27 1018.3 1018.3 -
15/09:00pm - - - - - SSE 41 56 22 30 1018.4 1018.4 -
15/08:30pm - - - - - SSE 41 48 22 26 1018.2 1018.2 -
15/08:00pm - - - - - SSE 41 46 22 25 1017.9 1017.9 -
15/07:30pm - - - - - SSE 43 50 23 27 1017.7 1017.7 -
15/07:00pm - - - - - SSE 43 56 23 30 1017.6 1017.6 -
15/06:30pm - - - - - SSE 44 54 24 29 1017.4 1017.4 -
15/06:00pm - - - - - SSE 43 52 23 28 1017.2 1017.2 -
15/05:30pm - - - - - SSE 44 52 24 28 1016.9 1016.9 -

Other formats

Comma delimited format used in spreadsheet applications
http://www.bom.gov.au/fwo/IDQ60801/IDQ60801.94284.axf

JavaScript Object Notation format (JSON) in row-major order
http://www.bom.gov.au/fwo/IDQ60801/IDQ60801.94284.json

Data quality

Most of these data are generated automatically and are frequently updated. Quality checks on data are not normally performed. It is possible for incorrect values to appear. Refer to information at About Latest Weather Observations and please check the disclaimer before using these data.